Time;durP1;ratioP1;P1;durP2;ratioP2;P2;SDS_P1;SDS_P2;PMS_P1;PMS_P2;Temp;Humidity;BMP_temperature;BMP_pressure;BME280_temperature;BME280_humidity;BME280_pressure;Samples;Min_cycle;Max_cycle;Signal;HPM_P1;HPM_P2
2022/02/24 00:00:13;;;;;;;6.87;3.73;;;5.00;99.90;;;5.68;100.00;98447.44;5015590;28;20469;-77
2022/02/24 00:02:45;;;;;;;5.63;3.47;;;4.90;99.90;;;5.69;100.00;98453.47;5017952;28;20453;-76
2022/02/24 00:05:15;;;;;;;8.00;3.60;;;4.90;99.90;;;5.65;100.00;98447.75;5013304;28;20935;-76
2022/02/24 00:07:45;;;;;;;5.43;3.27;;;4.80;99.90;;;5.58;100.00;98446.69;5012063;28;20497;-77
2022/02/24 00:10:17;;;;;;;5.83;2.80;;;5.00;99.90;;;5.56;100.00;98454.59;5013050;28;20469;-76
2022/02/24 00:12:47;;;;;;;4.73;3.47;;;5.00;99.90;;;5.58;100.00;98446.69;5012403;28;20663;-76
2022/02/24 00:15:17;;;;;;;6.53;3.37;;;4.90;99.90;;;5.56;100.00;98444.22;5011570;28;20494;-76
2022/02/24 00:17:48;;;;;;;10.23;4.17;;;4.90;99.90;;;5.54;100.00;98438.38;5015334;28;20463;-76
2022/02/24 00:20:18;;;;;;;8.83;3.27;;;4.90;99.90;;;5.52;100.00;98442.88;5012440;28;20461;-76
2022/02/24 00:22:48;;;;;;;7.40;3.40;;;4.80;99.90;;;5.53;100.00;98444.53;5012877;28;20477;-76
2022/02/24 00:25:18;;;;;;;7.00;2.73;;;4.70;99.90;;;5.51;100.00;98436.09;5013337;28;21014;-76
2022/02/24 00:27:47;;;;;;;7.43;3.30;;;4.90;99.90;;;5.47;100.00;98439.94;5013602;28;20471;-77
2022/02/24 00:30:16;;;;;;;7.27;3.47;;;4.70;99.90;;;5.47;100.00;98431.34;5012734;28;20463;-76
2022/02/24 00:32:47;;;;;;;6.00;3.40;;;4.70;99.90;;;5.44;100.00;98434.22;5013383;28;20501;-76
2022/02/24 00:35:17;;;;;;;8.60;3.70;;;4.60;99.90;;;5.38;100.00;98433.00;5013270;28;20473;-76
2022/02/24 00:37:48;;;;;;;6.43;3.50;;;4.60;99.90;;;5.38;100.00;98433.00;5012691;28;20476;-77
2022/02/24 00:40:18;;;;;;;6.30;3.40;;;4.60;99.90;;;5.34;100.00;98431.69;5013276;28;20470;-76
2022/02/24 00:42:48;;;;;;;8.33;3.60;;;4.70;99.90;;;5.34;100.00;98423.09;5011072;28;20458;-77
2022/02/24 00:45:18;;;;;;;6.60;3.20;;;4.70;99.90;;;5.29;100.00;98431.28;5012297;28;20481;-77
2022/02/24 00:47:50;;;;;;;4.37;2.93;;;4.60;99.90;;;5.30;100.00;98419.16;5010541;28;20473;-77
2022/02/24 00:50:19;;;;;;;6.13;3.23;;;4.60;99.90;;;5.30;100.00;98425.16;5009234;28;20875;-77
2022/02/24 00:52:50;;;;;;;9.53;3.30;;;4.60;99.90;;;5.27;100.00;98428.03;5011757;28;20461;-77
2022/02/24 00:55:19;;;;;;;5.77;3.40;;;4.60;99.90;;;5.26;100.00;98420.38;5012106;28;20498;-76
2022/02/24 00:57:49;;;;;;;7.43;3.53;;;4.50;99.90;;;5.23;100.00;98416.31;5011202;28;20833;-77
2022/02/24 01:00:20;;;;;;;6.47;3.17;;;4.60;99.90;;;5.17;100.00;98419.50;5011498;28;20773;-76
2022/02/24 01:02:51;;;;;;;9.37;3.30;;;4.40;99.90;;;5.20;100.00;98411.44;5013673;28;21037;-76
2022/02/24 01:05:25;;;;;;;4.70;3.10;;;4.40;99.90;;;5.22;100.00;98413.84;5013683;28;20500;-76
2022/02/24 01:07:56;;;;;;;6.00;3.23;;;4.50;99.90;;;5.17;100.00;98414.31;5012529;28;20488;-76
2022/02/24 01:10:26;;;;;;;7.30;3.80;;;4.30;99.90;;;5.21;100.00;98414.81;5014144;28;20946;-76
2022/02/24 01:12:56;;;;;;;5.60;2.90;;;4.40;99.90;;;5.21;100.00;98418.22;5013403;28;20471;-76
2022/02/24 01:15:27;;;;;;;14.10;2.93;;;4.30;99.90;;;5.23;100.00;98408.53;5012459;28;20506;-77
2022/02/24 01:17:58;;;;;;;5.40;2.60;;;4.50;99.90;;;5.26;100.00;98410.84;5010178;28;20471;-76
2022/02/24 01:20:28;;;;;;;6.80;2.87;;;4.60;99.90;;;5.29;100.00;98399.34;5011736;28;20812;-77
2022/02/24 01:22:57;;;;;;;5.47;2.87;;;4.60;99.90;;;5.32;100.00;98396.47;5011165;28;20476;-76
2022/02/24 01:25:28;;;;;;;15.70;3.23;;;4.50;99.90;;;5.35;100.00;98399.59;5012283;28;20507;-76
2022/02/24 01:27:58;;;;;;;4.97;2.93;;;4.60;99.90;;;5.35;100.00;98399.59;5012843;28;20469;-77
2022/02/24 01:30:28;;;;;;;4.67;3.53;;;4.50;99.90;;;5.36;100.00;98385.66;5012244;28;20470;-77
2022/02/24 01:32:59;;;;;;;6.53;3.57;;;4.70;99.90;;;5.38;100.00;98388.13;5011965;28;20504;-77
2022/02/24 01:35:29;;;;;;;16.73;3.73;;;4.70;99.90;;;5.39;100.00;98385.38;5012931;28;20476;-76
2022/02/24 01:37:58;;;;;;;5.00;2.97;;;4.60;99.90;;;5.41;100.00;98378.28;5013293;28;20468;-76
2022/02/24 01:40:28;;;;;;;6.17;3.23;;;4.60;99.90;;;5.40;100.00;98374.06;5012574;28;20473;-76
2022/02/24 01:42:58;;;;;;;3.90;2.67;;;4.60;99.90;;;5.40;100.00;98368.88;5009462;28;20475;-77
2022/02/24 01:45:28;;;;;;;5.70;3.30;;;4.60;99.90;;;5.43;100.00;98365.97;5012364;28;20491;-76
2022/02/24 01:47:59;;;;;;;4.73;3.00;;;4.60;99.90;;;5.42;100.00;98353.97;5010641;28;20501;-76
2022/02/24 01:50:31;;;;;;;15.63;3.73;;;4.70;99.90;;;5.43;100.00;98358.19;5008253;28;20497;-76
2022/02/24 01:53:01;;;;;;;7.33;3.40;;;4.60;99.90;;;5.45;100.00;98361.44;5013131;28;20457;-77
2022/02/24 01:55:31;;;;;;;5.80;3.20;;;4.70;99.90;;;5.43;100.00;98355.59;5010333;28;20466;-77
2022/02/24 01:58:03;;;;;;;10.07;3.33;;;4.60;99.90;;;5.46;100.00;98347.53;5009382;28;20502;-77
2022/02/24 02:00:33;;;;;;;9.00;3.07;;;4.70;99.90;;;5.49;100.00;98344.63;5011440;28;20519;-77
2022/02/24 02:03:05;;;;;;;9.77;3.50;;;4.70;99.90;;;5.50;100.00;98340.28;5008740;28;20544;-76
2022/02/24 02:05:36;;;;;;;6.40;3.70;;;4.70;99.90;;;5.49;100.00;98331.66;5014140;28;21020;-76
2022/02/24 02:08:07;;;;;;;5.83;3.20;;;4.80;99.90;;;5.51;100.00;98332.34;5015195;28;20476;-76
2022/02/24 02:10:37;;;;;;;5.63;3.30;;;4.80;99.90;;;5.51;100.00;98321.97;5012409;28;20550;-77
2022/02/24 02:13:08;;;;;;;6.63;3.07;;;4.80;99.90;;;5.52;100.00;98321.00;5013039;28;20471;-76
2022/02/24 02:15:38;;;;;;;8.03;3.77;;;4.80;99.90;;;5.53;100.00;98314.84;5014595;28;20529;-77
2022/02/24 02:18:09;;;;;;;5.93;3.40;;;4.80;99.90;;;5.53;100.00;98309.66;5012753;28;20507;-76
2022/02/24 02:20:41;;;;;;;6.33;3.30;;;4.90;99.90;;;5.50;100.00;98304.78;5012199;28;20992;-76
2022/02/24 02:23:11;;;;;;;3.53;3.13;;;4.90;99.90;;;5.54;100.00;98303.53;5012673;28;20476;-76
2022/02/24 02:25:41;;;;;;;3.77;2.90;;;4.80;99.90;;;5.55;100.00;98299.94;5011806;28;20463;-76
2022/02/24 02:28:15;;;;;;;7.37;3.10;;;4.80;99.90;;;5.59;100.00;98297.88;5011679;28;20468;-76
2022/02/24 02:30:46;;;;;;;4.50;3.10;;;4.80;99.90;;;5.57;100.00;98292.84;5011407;28;20986;-76
2022/02/24 02:33:15;;;;;;;8.20;3.60;;;4.90;99.90;;;5.57;100.00;98290.25;5015207;28;20480;-77
2022/02/24 02:35:47;;;;;;;10.40;2.93;;;4.80;99.90;;;5.58;100.00;98281.53;5015088;28;20473;-76
2022/02/24 02:38:18;;;;;;;9.37;3.60;;;4.90;99.90;;;5.56;100.00;98287.81;5015508;28;20615;-77
2022/02/24 02:40:48;;;;;;;13.70;4.43;;;4.90;99.90;;;5.58;100.00;98278.94;5013651;28;20469;-77
2022/02/24 02:43:19;;;;;;;5.77;2.90;;;4.80;99.90;;;5.59;100.00;98274.53;5015402;28;20467;-77
2022/02/24 02:45:50;;;;;;;7.20;3.57;;;4.90;99.90;;;5.59;100.00;98269.34;5012184;28;20524;-76
2022/02/24 02:48:20;;;;;;;5.40;3.20;;;4.80;99.90;;;5.61;100.00;98269.19;5016504;28;20470;-77
2022/02/24 02:50:51;;;;;;;11.37;3.03;;;4.90;99.90;;;5.58;100.00;98265.97;5010560;28;21143;-76
2022/02/24 02:53:22;;;;;;;10.30;3.07;;;4.80;99.90;;;5.61;100.00;98258.81;5015532;28;20987;-77
2022/02/24 02:55:51;;;;;;;7.10;3.40;;;4.90;99.90;;;5.62;100.00;98255.28;5013670;28;20464;-76
2022/02/24 02:58:22;;;;;;;8.17;3.10;;;4.90;99.90;;;5.63;100.00;98252.53;5013800;28;20585;-76
2022/02/24 03:00:51;;;;;;;5.40;2.97;;;4.90;99.90;;;5.64;100.00;98248.16;5013601;28;20465;-76
2022/02/24 03:03:24;;;;;;;5.60;3.40;;;4.90;99.90;;;5.66;100.00;98246.25;5011546;28;20554;-76
2022/02/24 03:05:56;;;;;;;7.10;3.17;;;4.90;99.90;;;5.67;100.00;98245.25;5017207;28;20799;-76
2022/02/24 03:08:26;;;;;;;8.23;3.00;;;5.00;99.90;;;5.66;100.00;98244.44;5015347;28;20900;-77
2022/02/24 03:10:56;;;;;;;6.20;3.30;;;4.90;99.90;;;5.69;100.00;98238.16;5014244;28;20544;-77
2022/02/24 03:13:27;;;;;;;6.20;4.00;;;4.90;99.90;;;5.68;100.00;98239.09;5016123;28;20561;-76
2022/02/24 03:15:57;;;;;;;7.13;3.33;;;4.90;99.90;;;5.68;100.00;98236.50;5012935;28;20572;-77
2022/02/24 03:18:27;;;;;;;6.57;3.90;;;4.90;99.90;;;5.69;100.00;98231.19;5016057;28;20536;-76
2022/02/24 03:20:58;;;;;;;8.50;2.93;;;4.90;99.90;;;5.71;100.00;98223.22;5014108;28;22104;-76
2022/02/24 03:23:27;;;;;;;6.87;3.10;;;4.90;99.90;;;5.72;100.00;98217.09;5014338;28;20465;-76
2022/02/24 03:25:58;;;;;;;6.30;2.87;;;5.10;99.90;;;5.71;100.00;98218.88;5012398;28;20493;-77
2022/02/24 03:28:29;;;;;;;7.47;3.00;;;5.00;99.90;;;5.73;100.00;98219.50;5014437;28;20463;-76
2022/02/24 03:31:02;;;;;;;6.90;3.30;;;5.00;99.90;;;5.74;100.00;98209.94;5015452;28;20588;-76
2022/02/24 03:33:33;;;;;;;8.13;3.90;;;5.00;99.90;;;5.73;100.00;98206.53;5017243;28;21019;-76
2022/02/24 03:36:04;;;;;;;5.77;3.07;;;5.00;99.90;;;5.72;100.00;98207.53;5016066;28;20949;-77
2022/02/24 03:38:34;;;;;;;6.13;3.80;;;5.00;99.90;;;5.74;100.00;98207.34;5017522;28;20459;-77
2022/02/24 03:41:05;;;;;;;10.70;3.70;;;5.00;99.90;;;5.70;100.00;98201.66;5016335;28;21085;-76
2022/02/24 03:43:36;;;;;;;5.50;2.97;;;5.10;99.90;;;5.73;100.00;98201.34;5017473;28;20442;-77
2022/02/24 03:46:06;;;;;;;4.10;2.97;;;5.00;99.90;;;5.74;100.00;98196.97;5016626;28;20466;-77
2022/02/24 03:48:35;;;;;;;7.30;3.10;;;5.00;99.90;;;5.74;100.00;98192.63;5017720;28;20449;-76
2022/02/24 03:51:07;;;;;;;4.40;3.20;;;5.00;99.90;;;5.75;100.00;98186.47;5017766;28;20453;-76
2022/02/24 03:53:38;;;;;;;3.83;3.10;;;5.00;99.90;;;5.78;100.00;98193.94;5015412;28;20462;-77
2022/02/24 03:56:08;;;;;;;5.30;2.73;;;5.00;99.90;;;5.81;100.00;98188.44;5011569;28;20963;-77
2022/02/24 03:58:38;;;;;;;6.40;3.30;;;5.00;99.90;;;5.82;100.00;98184.88;5012783;28;20477;-77
2022/02/24 04:01:08;;;;;;;3.73;2.53;;;5.00;99.90;;;5.83;100.00;98170.13;5011987;28;20462;-77
2022/02/24 04:03:39;;;;;;;5.07;3.03;;;5.00;99.90;;;5.86;100.00;98175.03;5014424;28;20460;-77
2022/02/24 04:06:12;;;;;;;6.87;3.63;;;5.00;99.90;;;5.85;100.00;98170.78;5015336;28;20469;-77
2022/02/24 04:08:42;;;;;;;6.93;3.87;;;5.10;99.90;;;5.85;100.00;98173.38;5015749;28;20700;-77
2022/02/24 04:11:12;;;;;;;6.53;3.00;;;5.10;99.90;;;5.86;100.00;98167.25;5017271;28;20450;-78
2022/02/24 04:13:42;;;;;;;5.80;3.20;;;5.10;99.90;;;5.86;100.00;98167.25;5017506;28;20493;-77
2022/02/24 04:16:12;;;;;;;5.07;2.97;;;5.10;99.90;;;5.87;100.00;98163.69;5016075;28;20539;-77
2022/02/24 04:18:42;;;;;;;5.63;2.70;;;5.10;99.90;;;5.87;100.00;98151.53;5015794;28;20445;-78
2022/02/24 04:21:15;;;;;;;5.73;2.90;;;5.10;99.90;;;5.89;100.00;98154.78;5017378;28;20567;-77
2022/02/24 04:23:45;;;;;;;2.63;2.43;;;5.10;99.90;;;5.91;100.00;98154.63;5017300;28;20450;-77
2022/02/24 04:26:16;;;;;;;11.70;3.03;;;5.20;99.90;;;5.90;100.00;98147.81;5017063;28;20454;-77
2022/02/24 04:28:45;;;;;;;2.90;2.47;;;5.20;99.90;;;5.91;100.00;98144.25;5017564;28;21085;-78
2022/02/24 04:31:14;;;;;;;6.23;2.87;;;5.30;99.90;;;5.91;100.00;98142.47;5016880;28;20442;-77
2022/02/24 04:33:45;;;;;;;9.33;2.90;;;5.20;99.90;;;5.92;100.00;98135.50;5014016;28;20463;-78
2022/02/24 04:36:15;;;;;;;2.10;1.90;;;5.20;99.90;;;5.93;100.00;98142.31;5010997;28;20508;-81
2022/02/24 04:38:45;;;;;;;4.00;2.70;;;5.20;99.90;;;5.94;100.00;98126.56;5013125;28;20496;-77
2022/02/24 04:41:14;;;;;;;5.20;2.20;;;5.30;99.90;;;5.96;100.00;98131.63;5011999;28;20466;-77
2022/02/24 04:43:45;;;;;;;5.73;2.70;;;5.20;99.90;;;5.96;100.00;98129.03;5007132;28;20544;-77
2022/02/24 04:46:16;;;;;;;4.80;2.53;;;5.20;99.90;;;5.96;100.00;98134.22;5011077;28;20533;-77
2022/02/24 04:48:46;;;;;;;9.30;3.60;;;5.20;99.90;;;5.97;100.00;98131.44;5011739;28;21004;-78
2022/02/24 04:51:20;;;;;;;3.90;2.43;;;5.30;99.90;;;5.99;100.00;98120.94;5016156;28;20466;-78
2022/02/24 04:53:49;;;;;;;8.37;3.30;;;5.20;99.90;;;6.00;100.00;98117.38;5015959;28;20453;-77
2022/02/24 04:56:20;;;;;;;6.87;3.13;;;5.20;99.90;;;6.02;100.00;98118.03;5015125;28;20450;-78
2022/02/24 04:58:50;;;;;;;6.87;2.50;;;5.30;99.90;;;6.03;100.00;98119.66;5016605;28;20472;-78
2022/02/24 05:01:19;;;;;;;4.83;2.53;;;5.20;99.90;;;6.02;100.00;98112.81;5014947;28;20463;-77
2022/02/24 05:03:50;;;;;;;4.93;2.37;;;5.30;99.90;;;6.02;100.00;98105.84;5011744;28;20986;-82
2022/02/24 05:06:22;;;;;;;7.60;3.37;;;5.30;99.90;;;6.03;100.00;98104.91;5009640;28;21001;-78
2022/02/24 05:08:53;;;;;;;6.00;3.03;;;5.20;99.90;;;6.03;100.00;98101.50;5010832;28;20982;-77
2022/02/24 05:11:24;;;;;;;5.13;2.50;;;5.30;99.90;;;6.04;100.00;98095.31;5015409;28;20455;-77
2022/02/24 05:13:54;;;;;;;4.60;2.70;;;5.30;99.90;;;6.05;100.00;98091.75;5015481;28;20463;-82
2022/02/24 05:16:24;;;;;;;9.13;4.60;;;5.30;99.90;;;6.03;100.00;98078.94;5015028;28;20499;-77
2022/02/24 05:18:53;;;;;;;14.43;3.97;;;5.30;99.90;;;6.06;100.00;98077.81;5015238;28;20977;-76
2022/02/24 05:21:26;;;;;;;7.47;3.50;;;5.30;99.90;;;6.07;100.00;98084.63;5016055;28;20443;-77
2022/02/24 05:23:57;;;;;;;6.63;2.93;;;5.30;99.90;;;6.05;100.00;98070.97;5014982;28;20470;-77
2022/02/24 05:26:33;;;;;;;5.17;2.93;;;5.30;99.90;;;6.07;100.00;98077.63;5016153;28;20460;-77
2022/02/24 05:29:03;;;;;;;5.13;2.70;;;5.30;99.90;;;6.07;100.00;98071.66;5015023;28;20653;-76
2022/02/24 05:31:33;;;;;;;8.10;3.00;;;5.30;99.90;;;6.06;100.00;98062.22;5015306;28;20455;-77
2022/02/24 05:34:03;;;;;;;9.30;2.43;;;5.30;99.90;;;6.07;100.00;98063.88;5014531;28;20478;-76
2022/02/24 05:36:34;;;;;;;7.40;2.57;;;5.30;99.90;;;6.07;100.00;98059.47;5015981;28;20467;-76
2022/02/24 05:39:03;;;;;;;9.17;4.67;;;5.30;99.90;;;6.10;100.00;98065.31;5015826;28;20486;-80
2022/02/24 05:41:33;;;;;;;7.60;3.20;;;5.30;99.90;;;6.10;100.00;98068.75;5015400;28;20840;-76
2022/02/24 05:44:04;;;;;;;6.50;2.90;;;5.30;99.90;;;6.10;100.00;98058.34;5015063;28;20454;-77
2022/02/24 05:46:35;;;;;;;6.80;2.47;;;5.40;99.90;;;6.12;100.00;98055.59;5014963;28;20454;-76
2022/02/24 05:49:04;;;;;;;6.13;2.23;;;5.40;99.90;;;6.12;100.00;98050.41;5013749;28;20565;-76
2022/02/24 05:51:36;;;;;;;7.05;2.80;;;5.40;99.90;;;6.12;100.00;98047.81;5015056;28;20798;-77
2022/02/24 05:54:06;;;;;;;10.07;3.07;;;5.40;99.90;;;6.12;100.00;98046.03;5019763;28;20582;-77
2022/02/24 05:56:37;;;;;;;5.80;3.10;;;5.50;99.90;;;6.13;100.00;98052.84;5018658;28;20451;-76
2022/02/24 05:59:07;;;;;;;10.73;3.00;;;5.30;99.90;;;6.13;100.00;98050.25;5016427;28;20753;-77
2022/02/24 06:01:37;;;;;;;6.00;2.50;;;5.40;99.90;;;6.13;100.00;98042.47;5016935;28;20481;-77
2022/02/24 06:04:08;;;;;;;7.27;2.83;;;5.50;99.90;;;6.11;100.00;98035.81;5016638;28;20451;-77
2022/02/24 06:06:39;;;;;;;6.23;2.87;;;5.50;99.90;;;6.11;100.00;98028.81;5019103;28;20486;-77
2022/02/24 06:09:08;;;;;;;5.17;2.50;;;5.40;99.90;;;6.14;100.00;98027.69;5019122;28;21007;-77
2022/02/24 06:11:37;;;;;;;5.63;2.63;;;5.30;99.90;;;6.11;100.00;98018.44;5019605;28;20808;-77
2022/02/24 06:14:07;;;;;;;6.27;3.00;;;5.40;99.90;;;6.06;100.00;98021.53;5019434;28;21028;-77
2022/02/24 06:16:37;;;;;;;3.17;2.40;;;5.40;99.90;;;6.09;100.00;98025.56;5018779;28;20573;-77
2022/02/24 06:19:07;;;;;;;3.93;2.50;;;5.30;99.90;;;6.06;100.00;98021.53;5018637;28;20472;-76
2022/02/24 06:21:39;;;;;;;5.73;3.03;;;5.50;99.90;;;6.07;100.00;98011.97;5022233;28;20698;-77
2022/02/24 06:24:09;;;;;;;6.13;2.70;;;5.40;99.90;;;6.10;100.00;98010.81;5017580;28;20443;-77
2022/02/24 06:26:39;;;;;;;6.20;2.57;;;5.40;99.90;;;6.10;100.00;98016.81;5019564;28;20537;-77
2022/02/24 06:29:09;;;;;;;4.10;2.63;;;5.40;99.90;;;6.08;100.00;98005.78;5020178;28;20498;-77
2022/02/24 06:31:40;;;;;;;4.07;2.13;;;5.40;99.90;;;6.08;100.00;98024.75;5019519;28;20851;-77
2022/02/24 06:34:11;;;;;;;3.83;2.40;;;5.40;99.90;;;6.09;100.00;98030.78;5018612;28;20504;-77
2022/02/24 06:36:41;;;;;;;3.03;2.23;;;5.50;99.90;;;6.12;100.00;98029.63;5021732;28;20447;-76
2022/02/24 06:39:11;;;;;;;7.90;2.93;;;5.50;99.90;;;6.13;100.00;98029.47;5018694;28;20474;-77
2022/02/24 06:41:41;;;;;;;4.23;3.10;;;5.40;99.90;;;6.15;100.00;98030.13;5020699;28;20940;-76
2022/02/24 06:44:11;;;;;;;3.50;2.63;;;5.40;99.90;;;6.16;100.00;98023.97;5020268;28;20525;-77
2022/02/24 06:46:41;;;;;;;3.67;2.30;;;5.40;99.90;;;6.16;100.00;98018.78;5020979;28;20525;-77
2022/02/24 06:49:12;;;;;;;5.57;3.00;;;5.40;99.90;;;6.17;100.00;98017.81;5020780;28;20937;-77
2022/02/24 06:51:44;;;;;;;6.90;3.03;;;5.50;99.90;;;6.15;100.00;98017.16;5022155;28;20455;-77
2022/02/24 06:54:14;;;;;;;3.97;2.60;;;5.50;99.90;;;6.15;100.00;98009.34;5022819;28;20492;-77
2022/02/24 06:56:44;;;;;;;7.33;3.30;;;5.40;99.90;;;6.15;100.00;97998.97;5022471;28;20543;-77
2022/02/24 06:59:14;;;;;;;4.40;3.00;;;5.60;99.90;;;6.17;100.00;98007.44;5021411;28;20468;-77
2022/02/24 07:01:44;;;;;;;8.43;2.80;;;5.60;99.90;;;6.18;100.00;98006.44;5022009;28;20496;-76
2022/02/24 07:04:15;;;;;;;7.67;2.80;;;5.50;99.90;;;6.22;100.00;97994.75;5021306;28;20986;-77
2022/02/24 07:06:47;;;;;;;4.20;2.80;;;5.50;99.90;;;6.23;100.00;97985.19;5020892;28;20477;-77
2022/02/24 07:09:16;;;;;;;4.90;3.13;;;5.60;99.90;;;6.24;100.00;97977.25;5019576;28;20876;-77
2022/02/24 07:11:47;;;;;;;4.83;2.60;;;5.50;99.90;;;6.24;100.00;97989.44;5020646;28;20516;-77
2022/02/24 07:14:17;;;;;;;4.90;2.73;;;5.50;99.90;;;6.23;100.00;97986.00;5018307;28;21013;-77
2022/02/24 07:16:47;;;;;;;6.87;2.83;;;5.50;99.90;;;6.22;100.00;97983.56;5018775;28;20794;-77
2022/02/24 07:19:17;;;;;;;5.50;2.33;;;5.50;99.90;;;6.25;100.00;97991.06;5019870;28;20526;-77
2022/02/24 07:21:49;;;;;;;4.90;2.60;;;5.60;99.90;;;6.27;100.00;97987.31;5020363;28;20528;-77
2022/02/24 07:24:19;;;;;;;3.37;2.20;;;5.60;99.90;;;6.28;100.00;97981.13;5020631;28;20485;-77
2022/02/24 07:26:50;;;;;;;4.10;2.20;;;5.60;99.90;;;6.30;100.00;97987.00;5018379;28;20529;-77
2022/02/24 07:29:19;;;;;;;3.80;2.30;;;5.60;99.90;;;6.32;100.00;97982.44;5020224;28;20497;-77
2022/02/24 07:31:52;;;;;;;3.67;2.20;;;5.60;99.90;;;6.34;100.00;97983.09;5020993;28;21085;-76
2022/02/24 07:34:23;;;;;;;3.87;2.37;;;5.50;99.90;;;6.36;100.00;97991.53;5019205;28;20567;-77
2022/02/24 07:36:55;;;;;;;5.97;2.53;;;5.60;99.90;;;6.38;100.00;97983.59;5020227;28;20451;-76
2022/02/24 07:39:25;;;;;;;4.97;2.73;;;5.60;99.90;;;6.41;100.00;97984.09;5017463;28;20466;-77
2022/02/24 07:41:54;;;;;;;4.20;2.73;;;5.60;99.90;;;6.42;100.00;97979.69;5021250;28;20809;-77
2022/02/24 07:44:25;;;;;;;8.67;3.90;;;5.60;99.90;;;6.44;100.00;97982.94;5018016;28;20479;-77
2022/02/24 07:46:56;;;;;;;10.80;3.60;;;5.60;99.90;;;6.45;100.00;97979.38;5019365;28;20451;-77
2022/02/24 07:49:27;;;;;;;12.50;3.80;;;5.70;99.90;;;6.45;100.00;97966.38;5019593;28;21033;-77
2022/02/24 07:51:57;;;;;;;8.37;3.80;;;5.70;99.90;;;6.45;100.00;97980.19;5021729;28;20493;-77
2022/02/24 07:54:27;;;;;;;8.33;4.17;;;5.90;99.90;;;6.45;100.00;97975.00;5016772;28;20460;-77
2022/02/24 07:56:57;;;;;;;7.97;4.20;;;5.80;99.90;;;6.46;100.00;97970.59;5019731;28;20462;-77
2022/02/24 07:59:26;;;;;;;7.07;3.83;;;5.80;99.90;;;6.47;100.00;97970.44;5020329;28;20446;-77
2022/02/24 08:01:56;;;;;;;10.00;3.33;;;5.90;99.90;;;6.48;100.00;97969.47;5022483;28;20536;-77
2022/02/24 08:04:26;;;;;;;5.00;3.53;;;5.90;99.90;;;6.52;100.00;97962.97;5019715;28;20473;-77
2022/02/24 08:06:57;;;;;;;8.47;3.43;;;5.90;99.90;;;6.55;100.00;97965.25;5017943;28;20536;-77
2022/02/24 08:09:27;;;;;;;7.37;3.37;;;5.90;99.90;;;6.58;100.00;97957.13;5017458;28;20836;-77
2022/02/24 08:14:44;;;;;;;3.33;2.87;;;6.00;99.90;;;6.68;100.00;97945.75;5016823;28;21039;-77
2022/02/24 08:17:15;;;;;;;8.03;3.60;;;6.00;99.90;;;6.72;100.00;97952.22;5016184;28;20483;-77
2022/02/24 08:19:44;;;;;;;6.43;3.40;;;6.00;99.90;;;6.77;100.00;97949.97;5018607;28;20456;-77
2022/02/24 08:22:16;;;;;;;10.40;3.67;;;6.00;99.90;;;6.80;100.00;97947.84;5017504;28;20446;-77
2022/02/24 08:24:45;;;;;;;10.93;4.33;;;6.10;99.90;;;6.86;100.00;97946.34;5016553;28;20462;-77
2022/02/24 08:27:16;;;;;;;6.77;3.60;;;6.10;99.90;;;6.90;100.00;97932.88;5017282;28;20447;-77
2022/02/24 08:29:46;;;;;;;6.63;3.83;;;6.10;99.90;;;6.96;100.00;97939.19;5019295;28;20493;-77
2022/02/24 08:32:15;;;;;;;6.37;3.40;;;6.20;99.90;;;7.01;100.00;97942.09;5018908;28;20446;-76
2022/02/24 08:34:47;;;;;;;7.27;3.77;;;6.20;99.90;;;7.07;100.00;97938.84;5019219;28;20465;-77
2022/02/24 08:37:19;;;;;;;5.97;3.23;;;6.30;99.90;;;7.13;100.00;97948.56;5017025;28;21062;-77
2022/02/24 08:39:48;;;;;;;6.70;3.13;;;6.40;99.90;;;7.18;100.00;97938.47;5017272;28;20486;-77
2022/02/24 08:42:19;;;;;;;6.33;2.60;;;6.50;99.90;;;7.24;100.00;97934.38;5016824;28;20463;-77
2022/02/24 08:44:49;;;;;;;4.57;2.43;;;6.60;99.90;;;7.30;100.00;97929.31;5019579;28;20450;-77
2022/02/24 08:47:35;;;;;;;8.20;2.70;;;6.70;99.90;;;7.35;100.00;97908.81;5017824;28;20441;-77
2022/02/24 08:50:08;;;;;;;5.13;2.53;;;6.80;99.90;;;7.43;100.00;97905.34;5019234;28;20500;-77
2022/02/24 08:53:00;;;;;;;5.47;2.50;;;6.80;99.90;;;7.48;100.00;97895.25;5020913;28;20442;-77
2022/02/24 08:55:33;;;;;;;9.93;3.00;;;6.90;99.90;;;7.54;100.00;97899.75;5019660;28;20442;-77
2022/02/24 08:58:05;;;;;;;5.47;2.50;;;7.00;99.90;;;7.56;100.00;97896.03;5018517;28;20490;-77
2022/02/24 09:00:35;;;;;;;8.27;2.90;;;6.90;99.90;;;7.63;100.00;97892.72;5019811;28;20922;-77
2022/02/24 09:03:05;;;;;;;4.07;2.80;;;7.10;99.90;;;7.67;100.00;97870.59;5019236;28;20504;-77
2022/02/24 09:05:35;;;;;;;6.20;2.80;;;7.10;99.90;;;7.72;100.00;97863.88;5017266;28;20465;-76
2022/02/24 09:08:09;;;;;;;6.57;2.07;;;7.10;99.90;;;7.81;100.00;97856.84;5016581;28;20515;-77
2022/02/24 09:10:40;;;;;;;4.53;2.30;;;7.10;99.90;;;7.86;100.00;97857.09;5017112;28;20556;-77
2022/02/24 09:13:10;;;;;;;11.13;2.80;;;7.20;99.90;;;7.92;100.00;97853.78;5016801;28;20540;-77
2022/02/24 09:15:41;;;;;;;5.40;2.60;;;7.30;99.90;;;8.01;100.00;97855.38;5016412;28;20485;-76
2022/02/24 09:18:11;;;;;;;7.37;2.87;;;7.40;99.90;;;8.07;100.00;97852.06;5017411;28;20447;-77
2022/02/24 09:20:43;;;;;;;5.90;2.30;;;7.50;99.90;;;8.15;100.00;97848.56;5016841;28;20438;-77
2022/02/24 09:23:14;;;;;;;4.47;2.10;;;7.60;99.90;;;8.21;100.00;97840.84;5015918;28;20454;-77
2022/02/24 09:25:47;;;;;;;6.13;2.53;;;7.70;99.90;;;8.27;100.00;97845.34;5018335;28;20450;-77
2022/02/24 09:28:17;;;;;;;7.93;2.73;;;7.70;99.90;;;8.34;100.00;97841.09;5019453;28;20451;-77
2022/02/24 09:30:46;;;;;;;4.30;2.10;;;7.80;99.90;;;8.42;100.00;97835.81;5017570;28;20504;-77
2022/02/24 09:33:16;;;;;;;5.70;2.00;;;7.90;99.90;;;8.48;100.00;97835.09;5016557;28;20994;-77
2022/02/24 09:35:46;;;;;;;6.27;2.60;;;8.00;99.90;;;8.54;100.00;97828.34;5018571;28;20451;-77
2022/02/24 09:38:17;;;;;;;8.73;2.57;;;8.10;99.90;;;8.60;100.00;97830.25;5016099;28;20443;-76
2022/02/24 09:40:53;;;;;;;4.70;2.13;;;8.10;99.90;;;8.64;100.00;97830.69;5017572;28;20459;-77
2022/02/24 09:43:44;;;;;;;3.80;2.10;;;8.20;99.90;;;8.71;100.00;97834.19;5018069;28;20967;-77
2022/02/24 09:46:17;;;;;;;6.50;2.20;;;8.20;99.90;;;8.75;100.00;97817.19;5017641;28;21114;-78
2022/02/24 09:48:47;;;;;;;3.57;1.90;;;8.30;99.90;;;8.74;100.00;97807.75;5019085;28;20455;-77
2022/02/24 09:51:18;;;;;;;5.20;2.33;;;8.20;99.90;;;8.79;100.00;97814.03;5019239;28;20497;-77
2022/02/24 09:53:50;;;;;;;4.77;2.13;;;8.20;99.90;;;8.85;100.00;97797.66;5018798;28;20465;-77
2022/02/24 09:56:28;;;;;;;9.20;2.73;;;8.40;99.90;;;8.89;100.00;97791.09;5019630;28;20458;-77
2022/02/24 09:59:00;;;;;;;5.50;2.60;;;8.40;99.90;;;8.93;100.00;97797.56;5018986;28;20463;-77
2022/02/24 10:01:30;;;;;;;3.67;2.03;;;8.50;99.90;;;8.99;100.00;97790.81;5020266;28;20586;-77
2022/02/24 10:04:01;;;;;;;4.07;2.63;;;8.50;99.90;;;9.03;100.00;97785.06;5017713;28;20785;-77
2022/02/24 10:06:38;;;;;;;3.77;2.43;;;8.60;99.90;;;9.10;100.00;97785.13;5016628;28;20478;-77
2022/02/24 10:09:12;;;;;;;6.00;2.27;;;8.70;99.90;;;9.15;100.00;97795.00;5016966;28;20442;-76
2022/02/24 10:11:41;;;;;;;4.10;2.07;;;8.70;99.90;;;9.21;100.00;97797.69;5018499;28;20501;-77
2022/02/24 10:14:15;;;;;;;3.70;1.80;;;8.80;99.90;;;9.26;100.00;97794.53;5015817;28;20463;-77
2022/02/24 10:16:59;;;;;;;5.37;1.97;;;8.80;99.90;;;9.27;100.00;97794.34;5015989;28;20482;-77
2022/02/24 10:19:30;;;;;;;4.07;2.03;;;8.70;99.90;;;9.27;100.00;97791.72;5016869;28;20460;-77
2022/02/24 10:22:12;;;;;;;3.00;1.73;;;8.70;99.90;;;9.35;100.00;97788.19;5018254;28;20515;-77
2022/02/24 10:24:45;;;;;;;12.80;2.60;;;8.90;99.90;;;9.37;100.00;97783.63;5016279;28;20446;-77
2022/02/24 10:27:23;;;;;;;8.27;2.37;;;8.90;99.90;;;9.37;100.00;97784.41;5015528;28;20465;-77
2022/02/24 10:30:03;;;;;;;5.27;2.73;;;8.80;99.90;;;9.43;100.00;97786.28;5016643;28;20926;-77
2022/02/24 10:32:36;;;;;;;4.87;2.00;;;8.90;99.90;;;9.44;100.00;97777.44;5017273;28;20542;-77
2022/02/24 10:35:25;;;;;;;3.97;2.20;;;9.00;99.90;;;9.47;100.00;97776.28;5018530;28;20473;-76
2022/02/24 10:38:07;;;;;;;4.27;2.00;;;8.90;99.90;;;9.49;100.00;97777.72;5014753;28;20955;-77
2022/02/24 10:40:41;;;;;;;3.20;1.80;;;9.00;99.90;;;9.52;100.00;97773.91;5017565;28;20466;-77
2022/02/24 10:43:16;;;;;;;7.80;2.43;;;9.00;99.90;;;9.48;100.00;97773.47;5017136;28;20446;-77